AXCGGARGarmin  id=247  GPS 72 Software Version 2.30|3070151016
HFDTE250307
HFPLTPilot:UNREGISTERED
HFTZOTimezone:2
HFSITSite:
HPGTYGliderType:OMEGA 7
HPGIDGliderID:
HFDTM100DATUM:WGS-1984
HFCIDCOMPETITIONID:
HFCCLCOMPETITIONCLASS:
LXCG     ICON:C:\Archivos de programa\CompeGPS\symbols\IconsPlay\response blue.ico
LXCG     COLOR:000119119
I00
B1127113751008N00117386WA0000000836
B1127183751007N00117386WA0000000838
B1127253751007N00117386WA0000000838
B1127323751007N00117386WA0000000838
B1127393751008N00117386WA0000000838
B1127463751008N00117386WA0000000839
B1127533751008N00117386WA0000000840
B1128003751008N00117387WA0000000841
B1128073751008N00117387WA0000000842
B1128143751008N00117387WA0000000841
B1128213751008N00117387WA0000000841
B1128283751008N00117387WA0000000841
B1128353751007N00117388WA0000000841
B1128423751006N00117389WA0000000841
B1128493751006N00117390WA0000000841
B1128563751006N00117391WA0000000842
B1129033751006N00117393WA0000000842
B1129103751006N00117393WA0000000841
B1129173751007N00117392WA0000000841
B1129243751007N00117392WA0000000841
B1129313751007N00117392WA0000000841
B1129383751007N00117391WA0000000841
B1129453751008N00117391WA0000000841
B1129563751012N00117390WA0000000841
B1130033751013N00117386WA0000000832
B1130103751014N00117389WA0000000836
B1130173751014N00117390WA0000000836
B1130243751013N00117389WA0000000836
B1130313751012N00117389WA0000000836
B1130383751012N00117388WA0000000837
B1130453751012N00117388WA0000000836
B1130523751012N00117388WA0000000836
B1130593751013N00117387WA0000000836
B1131063751013N00117387WA0000000835
B1131133751013N00117387WA0000000834
B1131203751013N00117386WA0000000832
B1131273751014N00117386WA0000000832
B1131343751014N00117386WA0000000831
B1131413751014N00117386WA0000000831
B1131483751014N00117386WA0000000831
B1131553751014N00117385WA0000000831
B1132023751013N00117386WA0000000833
B1132093751013N00117386WA0000000834
B1132163751013N00117386WA0000000834
B1132233751015N00117386WA0000000834
B1132303751016N00117387WA0000000834
B1132373751027N00117421WA0000000833
B1132443751027N00117459WA0000000823
B1132513751032N00117494WA0000000814
B1132583751041N00117532WA0000000810
B1133053751057N00117568WA0000000801
B1133123751069N00117602WA0000000792
B1133193751037N00117618WA0000000786
B1133263751021N00117650WA0000000785
B1133333751005N00117678WA0000000781
B1133403751001N00117639WA0000000783
B1133473751026N00117633WA0000000782
B1133543751020N00117673WA0000000782
B1134013750985N00117678WA0000000776
B1134083750994N00117640WA0000000767
B1134153751021N00117630WA0000000757
B1134223751054N00117632WA0000000753
B1134293751072N00117607WA0000000760
B1134363751091N00117624WA0000000759
B1134433751103N00117657WA0000000756
B1134503751124N00117642WA0000000749
B1134573751149N00117628WA0000000734
B1135043751173N00117650WA0000000725
B1135113751197N00117670WA0000000720
B1135183751208N00117704WA0000000710
B1135253751230N00117732WA0000000707
B1135323751256N00117755WA0000000696
B1135393751287N00117767WA0000000694
B1135463751309N00117749WA0000000691
B1135533751327N00117721WA0000000681
B1136003751352N00117742WA0000000674
B1136073751331N00117774WA0000000673
B1136143751318N00117739WA0000000676
B1136213751334N00117762WA0000000669
B1136283751300N00117760WA0000000673
B1136353751318N00117744WA0000000668
B1136423751315N00117781WA0000000669
B1136493751276N00117786WA0000000674
B1136563751290N00117763WA0000000678
B1137033751267N00117781WA0000000684
B1137103751277N00117749WA0000000688
B1137173751275N00117779WA0000000687
B1137243751268N00117749WA0000000691
B1137313751274N00117781WA0000000690
B1137383751250N00117761WA0000000692
B1137453751275N00117754WA0000000701
B1137523751272N00117786WA0000000696
B1137593751248N00117759WA0000000700
B1138063751257N00117728WA0000000705
B1138133751281N00117731WA0000000697
B1138203751283N00117772WA0000000694
B1138273751249N00117784WA0000000680
B1138343751260N00117755WA0000000684
B1138413751283N00117746WA0000000689
B1138483751265N00117777WA0000000679
B1138553751257N00117738WA0000000679
B1139023751278N00117727WA0000000678
B1139093751292N00117754WA0000000677
B1139163751262N00117776WA0000000672
B1139233751252N00117737WA0000000668
B1139303751275N00117731WA0000000674
B1139373751256N00117758WA0000000672
B1139443751253N00117720WA0000000674
B1139513751277N00117711WA0000000677
B1139583751256N00117723WA0000000678
B1140053751277N00117702WA0000000680
B1140123751281N00117735WA0000000689
B1140193751250N00117727WA0000000686
B1140263751275N00117720WA0000000699
B1140333751251N00117740WA0000000696
B1140403751255N00117700WA0000000704
B1140473751270N00117716WA0000000710
B1140543751241N00117698WA0000000707
B1141013751264N00117690WA0000000717
B1141083751251N00117717WA0000000707
B1141153751257N00117691WA0000000711
B1141223751237N00117714WA0000000711
B1141293751246N00117691WA0000000709
B1141363751225N00117721WA0000000719
B1141433751205N00117695WA0000000717
B1141503751202N00117725WA0000000722
B1141573751197N00117689WA0000000723
B1142043751208N00117716WA0000000724
B1142113751187N00117687WA0000000723
B1142183751196N00117711WA0000000726
B1142253751175N00117679WA0000000724
B1142323751203N00117679WA0000000728
B1142393751206N00117711WA0000000729
B1142463751184N00117683WA0000000724
B1142533751208N00117675WA0000000727
B1143003751189N00117704WA0000000717
B1143073751201N00117677WA0000000720
B1143143751218N00117696WA0000000719
B1143213751192N00117728WA0000000710
B1143283751150N00117716WA0000000697
B1143353751140N00117752WA0000000697
B1143423751168N00117746WA0000000695
B1143493751199N00117727WA0000000684
B1143563751232N00117735WA0000000672
B1144033751251N00117768WA0000000672
B1144103751275N00117748WA0000000676
B1144173751243N00117747WA0000000682
B1144243751268N00117748WA0000000686
B1144313751241N00117748WA0000000691
B1144383751255N00117730WA0000000693
B1144453751237N00117755WA0000000701
B1144523751260N00117746WA0000000704
B1144593751224N00117738WA0000000708
B1145063751232N00117771WA0000000705
B1145133751238N00117737WA0000000701
B1145203751207N00117751WA0000000702
B1145273751215N00117781WA0000000693
B1145343751242N00117770WA0000000690
B1145413751237N00117800WA0000000681
B1145483751230N00117751WA0000000677
B1145553751263N00117741WA0000000670
B1146023751290N00117732WA0000000672
B1146093751316N00117750WA0000000658
B1146163751329N00117779WA0000000652
B1146233751342N00117818WA0000000641
B1146303751374N00117833WA0000000630
B1146373751409N00117844WA0000000617
B1146443751446N00117854WA0000000602
B1146513751484N00117861WA0000000581
B1146583751524N00117874WA0000000573
B1147053751548N00117902WA0000000566
B1147123751522N00117934WA0000000570
B1147193751500N00117911WA0000000559
B1147263751528N00117888WA0000000552
B1147333751557N00117870WA0000000553
B1147403751597N00117856WA0000000533
B1147473751635N00117856WA0000000517
B1147543751672N00117867WA0000000508
B1148013751705N00117881WA0000000502
B1148083751739N00117900WA0000000499
B1148153751765N00117898WA0000000516
B1148223751743N00117867WA0000000526
B1148293751745N00117899WA0000000542
B1148363751739N00117865WA0000000549
B1148433751720N00117895WA0000000563
B1148503751747N00117920WA0000000576
B1148573751764N00117893WA0000000591
B1149043751728N00117883WA0000000604
B1149113751741N00117913WA0000000617
B1149183751759N00117881WA0000000629
B1149253751724N00117860WA0000000640
B1149323751730N00117889WA0000000656
B1149393751747N00117858WA0000000661
B1149463751709N00117846WA0000000666
B1149533751680N00117853WA0000000676
B1150003751694N00117847WA0000000686
B1150073751678N00117825WA0000000693
B1150143751682N00117850WA0000000709
B1150213751646N00117854WA0000000715
B1150283751625N00117827WA0000000721
B1150353751650N00117804WA0000000733
B1150423751670N00117814WA0000000740
B1150493751672N00117845WA0000000737
B1150563751642N00117865WA0000000741
B1151033751609N00117869WA0000000748
B1151103751599N00117835WA0000000747
B1151173751623N00117849WA0000000755
B1151243751609N00117888WA0000000752
B1151313751576N00117908WA0000000760
B1151383751556N00117886WA0000000752
B1151453751587N00117879WA0000000746
B1151523751591N00117922WA0000000746
B1151593751560N00117947WA0000000742
B1152063751525N00117935WA0000000729
B1152133751502N00117903WA0000000718
B1152203751488N00117860WA0000000709
B1152273751473N00117813WA0000000710
B1152343751493N00117784WA0000000719
B1152413751502N00117750WA0000000723
B1152483751467N00117752WA0000000733
B1152553751472N00117797WA0000000744
B1153023751504N00117796WA0000000749
B1153093751505N00117752WA0000000759
B1153163751469N00117741WA0000000766
B1153233751462N00117784WA0000000766
B1153303751489N00117812WA0000000772
B1153373751520N00117801WA0000000779
B1153443751521N00117759WA0000000773
B1153513751484N00117739WA0000000771
B1153583751448N00117749WA0000000773
B1154053751424N00117726WA0000000772
B1154123751440N00117737WA0000000782
B1154193751422N00117764WA0000000790
B1154263751423N00117732WA0000000793
B1154333751417N00117763WA0000000807
B1154403751392N00117749WA0000000813
B1154473751415N00117751WA0000000822
B1154543751390N00117775WA0000000835
B1155013751371N00117744WA0000000841
B1155083751385N00117760WA0000000852
B1155153751354N00117772WA0000000859
B1155223751322N00117752WA0000000855
B1155293751346N00117741WA0000000864
B1155363751322N00117759WA0000000867
B1155433751334N00117729WA0000000872
B1155503751336N00117764WA0000000879
B1155573751299N00117778WA0000000875
B1156043751268N00117745WA0000000876
B1156113751229N00117728WA0000000878
B1156183751233N00117697WA0000000889
B1156253751240N00117724WA0000000891
B1156323751211N00117703WA0000000901
B1156393751217N00117677WA0000000900
B1156463751213N00117709WA0000000908
B1156533751182N00117691WA0000000910
B1157003751198N00117674WA0000000909
B1157073751204N00117709WA0000000921
B1157143751178N00117734WA0000000916
B1157213751159N00117699WA0000000912
B1157283751148N00117658WA0000000910
B1157353751121N00117623WA0000000915
B1157423751085N00117638WA0000000914
B1157493751106N00117638WA0000000918
B1157563751081N00117601WA0000000921
B1158033751065N00117628WA0000000927
B1158103751064N00117657WA0000000928
B1158173751045N00117618WA0000000937
B1158243751062N00117604WA0000000935
B1158313751031N00117631WA0000000939
B1158383750998N00117606WA0000000939
B1158453751007N00117572WA0000000947
B1158523751025N00117588WA0000000939
B1158593750988N00117611WA0000000946
B1159063750988N00117579WA0000000948
B1159133751004N00117599WA0000000950
B1159203750968N00117588WA0000000950
B1159273750975N00117556WA0000000957
B1159343750975N00117516WA0000000953
B1159413750993N00117531WA0000000955
B1159483750973N00117568WA0000000965
B1159553750961N00117601WA0000000968
B1200023750967N00117571WA0000000976
B1200093750930N00117580WA0000000983
B1200163750946N00117602WA0000000988
B1200233750941N00117564WA0000000997
B1200303750905N00117563WA0000000999
B1200373750913N00117597WA0000001003
B1200443750935N00117583WA0000001006
B1200513750942N00117548WA0000001012
B1200583750931N00117570WA0000001016
B1201053750925N00117533WA0000001023
B1201123750944N00117552WA0000001022
B1201193750932N00117586WA0000001029
B1201263750902N00117556WA0000001028
B1201333750920N00117543WA0000001033
B1201403750896N00117569WA0000001042
B1201473750877N00117533WA0000001047
B1201543750898N00117524WA0000001052
B1202013750889N00117559WA0000001061
B1202083750864N00117530WA0000001064
B1202153750884N00117517WA0000001069
B1202223750863N00117545WA0000001074
B1202293750859N00117510WA0000001078
B1202363750882N00117502WA0000001086
B1202433750908N00117491WA0000001090
B1202503750919N00117529WA0000001087
B1202573750878N00117535WA0000001090
B1203043750851N00117504WA0000001096
B1203113750817N00117500WA0000001092
B1203183750831N00117537WA0000001086
B1203253750855N00117512WA0000001085
B1203323750839N00117474WA0000001081
B1203393750805N00117477WA0000001071
B1203463750811N00117522WA0000001064
B1203533750842N00117515WA0000001054
B1204003750868N00117488WA0000001047
B1204073750895N00117460WA0000001040
B1204143750909N00117417WA0000001034
B1204213750907N00117378WA0000001032
B1204283750885N00117351WA0000001035
B1204353750861N00117319WA0000001034
B1204423750871N00117287WA0000001023
B1204493750871N00117334WA0000001021
B1204563750863N00117379WA0000001020
B1205033750884N00117420WA0000001022
B1205103750917N00117413WA0000001014
B1205173750910N00117372WA0000001007
B1205243750877N00117382WA0000001004
B1205313750866N00117431WA0000001007
B1205383750860N00117478WA0000001003
B1205453750844N00117520WA0000000991
B1205523750849N00117570WA0000000979
B1205593750874N00117600WA0000000973
B1206063750907N00117621WA0000000960
B1206133750943N00117637WA0000000947
B1206203750974N00117658WA0000000932
B1206273751007N00117686WA0000000918
B1206343751036N00117714WA0000000918
B1206413751057N00117746WA0000000910
B1206483751070N00117791WA0000000912
B1206553751090N00117821WA0000000925
B1207023751108N00117796WA0000000940
B1207093751079N00117781WA0000000945
B1207163751065N00117824WA0000000947
B1207233751088N00117839WA0000000958
B1207303751099N00117810WA0000000968
B1207373751076N00117786WA0000000972
B1207443751061N00117822WA0000000980
B1207513751083N00117854WA0000000982
B1207583751113N00117874WA0000000995
B1208053751134N00117855WA0000001005
B1208123751103N00117862WA0000001013
B1208193751098N00117914WA0000001020
B1208263751128N00117928WA0000001021
B1208333751142N00117903WA0000001027
B1208403751125N00117878WA0000001039
B1208473751103N00117897WA0000001041
B1208543751129N00117917WA0000001047
B1209013751129N00117881WA0000001053
B1209083751117N00117848WA0000001060
B1209153751089N00117844WA0000001060
B1209223751104N00117887WA0000001059
B1209293751133N00117865WA0000001063
B1209363751141N00117829WA0000001063
B1209433751118N00117812WA0000001049
B1209503751090N00117844WA0000001042
B1209573751073N00117888WA0000001045
B1210043751054N00117928WA0000001037
B1210113751021N00117946WA0000001034
B1210183750987N00117967WA0000001029
B1210253750955N00117992WA0000001020
B1210323750924N00118019WA0000001009
B1210393750909N00118067WA0000001004
B1210463750902N00118121WA0000000997
B1210533750889N00118171WA0000000988
B1211003750892N00118228WA0000000985
B1211073750866N00118256WA0000000978
B1211143750883N00118236WA0000000975
B1211213750895N00118283WA0000000981
B1211283750869N00118317WA0000000967
B1211353750864N00118284WA0000000962
B1211423750893N00118277WA0000000953
B1211493750916N00118325WA0000000946
B1211563750923N00118380WA0000000943
B1212033750921N00118425WA0000000946
B1212103750948N00118434WA0000000935
B1212173750960N00118394WA0000000931
B1212243750924N00118383WA0000000922
B1212313750899N00118431WA0000000911
B1212383750872N00118483WA0000000905
B1212453750835N00118519WA0000000906
B1212523750795N00118532WA0000000911
B1212593750802N00118506WA0000000918
B1213063750797N00118551WA0000000923
B1213133750751N00118550WA0000000923
B1213203750761N00118531WA0000000935
B1213273750753N00118577WA0000000941
B1213343750721N00118612WA0000000936
B1213413750674N00118596WA0000000936
B1213483750665N00118559WA0000000933
B1213553750685N00118564WA0000000943
B1214023750671N00118534WA0000000953
B1214093750673N00118562WA0000000961
B1214163750670N00118531WA0000000974
B1214233750638N00118549WA0000000983
B1214303750658N00118541WA0000000992
B1214373750621N00118541WA0000000999
B1214443750639N00118561WA0000001012
B1214513750615N00118535WA0000001016
B1214583750599N00118572WA0000001015
B1215053750621N00118572WA0000001025
B1215123750636N00118590WA0000001026
B1215193750604N00118586WA0000001032
B1215263750624N00118579WA0000001037
B1215333750611N00118620WA0000001033
B1215403750577N00118614WA0000001033
B1215473750551N00118592WA0000001025
B1215543750537N00118568WA0000001020
B1216013750540N00118537WA0000001020
B1216083750562N00118512WA0000001007
B1216153750586N00118542WA0000001001
B1216223750588N00118584WA0000000993
B1216293750581N00118627WA0000000983
B1216363750576N00118672WA0000000977
B1216433750586N00118712WA0000000972
B1216503750601N00118748WA0000000966
B1216573750588N00118784WA0000000964
B1217043750571N00118815WA0000000966
B1217113750542N00118825WA0000000968
B1217183750513N00118820WA0000000972
B1217253750504N00118785WA0000000981
B1217323750520N00118816WA0000000986
B1217393750492N00118803WA0000000991
B1217463750505N00118762WA0000001003
B1217533750530N00118781WA0000001010
B1218003750509N00118814WA0000001017
B1218073750485N00118795WA0000001030
B1218143750502N00118781WA0000001042
B1218213750477N00118810WA0000001055
B1218283750457N00118781WA0000001060
B1218353750476N00118763WA0000001075
B1218423750489N00118795WA0000001092
B1218493750458N00118811WA0000001099
B1218563750457N00118780WA0000001111
B1219033750483N00118780WA0000001125
B1219103750457N00118800WA0000001141
B1219173750466N00118776WA0000001156
B1219243750443N00118794WA0000001169
B1219313750460N00118795WA0000001186
B1219383750429N00118798WA0000001202
B1219453750446N00118811WA0000001210
B1219523750411N00118829WA0000001224
B1219593750404N00118799WA0000001226
B1220063750430N00118822WA0000001221
B1220133750438N00118863WA0000001234
B1220203750414N00118894WA0000001233
B1220273750389N00118874WA0000001229
B1220343750392N00118846WA0000001222
B1220413750412N00118816WA0000001221
B1220483750439N00118793WA0000001220
B1220553750457N00118778WA0000001223
B1221023750491N00118779WA0000001218
B1221093750530N00118781WA0000001209
B1221163750560N00118776WA0000001197
B1221233750595N00118763WA0000001185
B1221303750625N00118734WA0000001178
B1221373750653N00118701WA0000001171
B1221443750683N00118672WA0000001168
B1221513750707N00118641WA0000001164
B1221583750731N00118603WA0000001163
B1222053750749N00118569WA0000001159
B1222123750774N00118533WA0000001155
B1222193750804N00118504WA0000001145
B1222263750838N00118474WA0000001146
B1222333750874N00118459WA0000001147
B1222403750914N00118455WA0000001141
B1222473750957N00118466WA0000001131
B1222543750998N00118471WA0000001118
B1223013751038N00118479WA0000001105
B1223083751077N00118489WA0000001090
B1223153751116N00118512WA0000001077
B1223223751149N00118557WA0000001060
B1223293751155N00118616WA0000001053
B1223363751129N00118663WA0000001046
B1223433751097N00118696WA0000001036
B1223503751062N00118715WA0000001024
B1223573751027N00118735WA0000001014
B1224043750989N00118755WA0000001007
B1224113750949N00118777WA0000001000
B1224183750909N00118803WA0000000997
B1224253750864N00118818WA0000000985
B1224323750820N00118827WA0000000979
B1224393750778N00118836WA0000000976
B1224463750735N00118842WA0000000970
B1224533750694N00118843WA0000000966
B1225003750659N00118845WA0000000956
B1225073750625N00118839WA0000000945
B1225143750592N00118827WA0000000944
B1225213750564N00118798WA0000000936
B1225283750536N00118766WA0000000941
B1225353750506N00118754WA0000000959
B1225423750514N00118720WA0000000968
B1225493750536N00118742WA0000000979
B1225563750511N00118758WA0000000991
B1226033750489N00118744WA0000001016
B1226103750511N00118701WA0000001034
B1226173750523N00118733WA0000001053
B1226243750495N00118708WA0000001072
B1226313750533N00118691WA0000001103
B1226383750526N00118721WA0000001125
B1226453750498N00118704WA0000001136
B1226523750478N00118671WA0000001159
B1226593750460N00118690WA0000001184
B1227063750478N00118711WA0000001213
B1227133750490N00118665WA0000001250
B1227203750458N00118656WA0000001271
B1227273750453N00118696WA0000001285
B1227343750484N00118676WA0000001308
B1227413750498N00118635WA0000001334
B1227483750507N00118657WA0000001353
B1227553750472N00118656WA0000001376
B1228023750464N00118618WA0000001396
B1228093750491N00118631WA0000001406
B1228163750484N00118678WA0000001436
B1228233750454N00118705WA0000001457
B1228303750457N00118670WA0000001473
B1228373750476N00118700WA0000001500
B1228443750445N00118701WA0000001515
B1228513750470N00118692WA0000001535
B1228583750478N00118728WA0000001547
B1229053750459N00118776WA0000001564
B1229123750434N00118783WA0000001564
B1229193750455N00118756WA0000001569
B1229263750483N00118751WA0000001582
B1229333750500N00118725WA0000001590
B1229403750470N00118709WA0000001597
B1229473750465N00118757WA0000001606
B1229543750498N00118764WA0000001618
B1230013750483N00118738WA0000001630
B1230083750474N00118787WA0000001634
B1230153750481N00118834WA0000001635
B1230223750450N00118827WA0000001637
B1230293750449N00118790WA0000001638
B1230363750461N00118752WA0000001637
B1230433750475N00118718WA0000001643
B1230503750462N00118693WA0000001647
B1230573750439N00118719WA0000001648
B1231043750446N00118765WA0000001647
B1231113750484N00118786WA0000001649
B1231183750522N00118779WA0000001653
B1231253750550N00118744WA0000001664
B1231323750542N00118709WA0000001673
B1231393750526N00118741WA0000001681
B1231463750561N00118765WA0000001691
B1231533750570N00118728WA0000001696
B1232003750551N00118752WA0000001705
B1232073750588N00118762WA0000001710
B1232143750593N00118726WA0000001718
B1232213750574N00118745WA0000001721
B1232283750609N00118772WA0000001719
B1232353750648N00118748WA0000001733
B1232423750668N00118785WA0000001736
B1232493750651N00118799WA0000001742
B1232563750651N00118845WA0000001750
B1233033750668N00118884WA0000001755
B1233103750687N00118922WA0000001748
B1233173750712N00118957WA0000001725
B1233243750747N00118989WA0000001708
B1233313750780N00119025WA0000001687
B1233383750816N00119061WA0000001676
B1233453750854N00119094WA0000001668
B1233523750885N00119127WA0000001652
B1233593750922N00119162WA0000001641
B1234063750950N00119198WA0000001629
B1234133750974N00119240WA0000001613
B1234203751008N00119276WA0000001605
B1234273751045N00119312WA0000001591
B1234343751081N00119352WA0000001581
B1234413751118N00119387WA0000001567
B1234483751158N00119419WA0000001557
B1234553751197N00119449WA0000001543
B1235023751231N00119485WA0000001531
B1235093751264N00119523WA0000001518
B1235163751294N00119563WA0000001510
B1235233751325N00119603WA0000001496
B1235303751353N00119643WA0000001488
B1235373751385N00119679WA0000001479
B1235443751419N00119716WA0000001469
B1235513751451N00119756WA0000001461
B1235583751481N00119797WA0000001451
B1236053751512N00119843WA0000001442
B1236123751543N00119891WA0000001436
B1236193751575N00119938WA0000001432
B1236263751606N00119979WA0000001425
B1236333751638N00120022WA0000001419
B1236403751670N00120067WA0000001417
B1236473751709N00120108WA0000001409
B1236543751753N00120144WA0000001404
B1237013751799N00120177WA0000001398
B1237083751845N00120210WA0000001390
B1237153751893N00120238WA0000001380
B1237223751937N00120269WA0000001367
B1237293751984N00120301WA0000001358
B1237363752030N00120331WA0000001348
B1237433752077N00120359WA0000001336
B1237503752124N00120387WA0000001325
B1237573752171N00120416WA0000001314
B1238043752217N00120444WA0000001306
B1238113752262N00120471WA0000001295
B1238183752307N00120497WA0000001285
B1238253752353N00120521WA0000001275
B1238323752400N00120543WA0000001263
B1238393752447N00120562WA0000001247
B1238463752492N00120576WA0000001233
B1238533752537N00120595WA0000001220
B1239003752582N00120613WA0000001201
B1239073752626N00120629WA0000001179
B1239143752657N00120639WA0000001175
B1239213752687N00120640WA0000001161
B1239283752719N00120648WA0000001147
B1239353752753N00120653WA0000001148
B1239423752782N00120664WA0000001132
B1239493752818N00120674WA0000001115
B1239563752858N00120680WA0000001098
B1240033752901N00120683WA0000001091
B1240103752936N00120675WA0000001094
B1240173752967N00120656WA0000001096
B1240243752971N00120704WA0000001098
B1240313752954N00120680WA0000001106
B1240383752987N00120677WA0000001109
B1240453753013N00120711WA0000001110
B1240523753014N00120762WA0000001111
B1240593753009N00120804WA0000001116
B1241063753039N00120835WA0000001110
B1241133753077N00120827WA0000001117
B1241203753091N00120796WA0000001124
B1241273753068N00120776WA0000001129
B1241343753059N00120817WA0000001134
B1241413753099N00120826WA0000001136
B1241483753123N00120852WA0000001142
B1241553753104N00120859WA0000001151
B1242023753131N00120846WA0000001156
B1242093753158N00120827WA0000001154
B1242163753184N00120800WA0000001150
B1242233753209N00120794WA0000001162
B1242303753211N00120835WA0000001172
B1242373753189N00120830WA0000001175
B1242443753194N00120804WA0000001186
B1242513753203N00120788WA0000001199
B1242583753175N00120795WA0000001204
B1243053753183N00120830WA0000001200
B1243123753204N00120822WA0000001201
B1243193753205N00120802WA0000001217
B1243263753195N00120779WA0000001232
B1243333753164N00120790WA0000001239
B1243403753180N00120830WA0000001243
B1243473753199N00120814WA0000001247
B1243543753176N00120833WA0000001257
B1244013753176N00120883WA0000001268
B1244083753154N00120879WA0000001260
B1244153753173N00120864WA0000001272
B1244223753200N00120883WA0000001279
B1244293753221N00120913WA0000001277
B1244363753229N00120966WA0000001278
B1244433753247N00121016WA0000001289
B1244503753262N00121003WA0000001305
B1244573753230N00121025WA0000001311
B1245043753247N00121078WA0000001317
B1245113753274N00121103WA0000001320
B1245183753310N00121122WA0000001323
B1245253753340N00121137WA0000001336
B1245323753357N00121108WA0000001343
B1245393753335N00121086WA0000001368
B1245463753304N00121103WA0000001393
B1245533753316N00121151WA0000001399
B1246003753344N00121140WA0000001420
B1246073753315N00121143WA0000001433
B1246143753340N00121158WA0000001450
B1246213753325N00121137WA0000001465
B1246283753306N00121175WA0000001477
B1246353753334N00121184WA0000001485
B1246423753308N00121176WA0000001494
B1246493753329N00121208WA0000001500
B1246563753325N00121179WA0000001504
B1247033753299N00121165WA0000001512
B1247103753279N00121145WA0000001518
B1247173753244N00121160WA0000001529
B1247243753215N00121198WA0000001524
B1247313753202N00121238WA0000001525
B1247383753188N00121275WA0000001513
B1247453753162N00121266WA0000001499
B1247523753180N00121229WA0000001482
B1247593753215N00121201WA0000001475
B1248063753247N00121184WA0000001475
B1248133753272N00121174WA0000001482
B1248203753291N00121153WA0000001493
B1248273753304N00121124WA0000001498
B1248343753330N00121104WA0000001497
B1248413753360N00121079WA0000001492
B1248483753381N00121045WA0000001491
B1248553753376N00121015WA0000001490
B1249023753363N00120977WA0000001495
B1249093753358N00120938WA0000001502
B1249163753325N00120926WA0000001502
B1249233753307N00120967WA0000001507
B1249303753337N00120982WA0000001508
B1249373753356N00120956WA0000001510
B1249443753361N00120919WA0000001509
B1249513753327N00120902WA0000001508
B1249583753301N00120940WA0000001502
B1250053753302N00120989WA0000001496
B1250123753331N00121016WA0000001491
B1250193753364N00121013WA0000001484
B1250263753382N00120982WA0000001477
B1250333753396N00120943WA0000001465
B1250403753414N00120903WA0000001458
B1250473753432N00120866WA0000001457
B1250543753448N00120824WA0000001458
B1251013753467N00120784WA0000001458
B1251083753499N00120758WA0000001462
B1251153753517N00120722WA0000001459
B1251223753532N00120678WA0000001453
B1251293753539N00120632WA0000001447
B1251363753543N00120579WA0000001437
B1251433753556N00120530WA0000001430
B1251503753572N00120482WA0000001419
B1251573753596N00120434WA0000001410
B1252043753623N00120388WA0000001396
B1252113753650N00120344WA0000001382
B1252183753677N00120299WA0000001368
B1252253753702N00120253WA0000001352
B1252323753735N00120209WA0000001337
B1252393753766N00120167WA0000001326
B1252463753796N00120121WA0000001316
B1252533753824N00120073WA0000001305
B1253003753851N00120023WA0000001293
B1253073753880N00119973WA0000001279
B1253143753903N00119923WA0000001264
B1253213753926N00119874WA0000001246
B1253283753950N00119826WA0000001221
B1253353753983N00119778WA0000001204
B1253423754014N00119728WA0000001182
B1253493754045N00119671WA0000001157
B1253563754076N00119612WA0000001133
B1254033754102N00119554WA0000001114
B1254103754128N00119501WA0000001095
B1254173754159N00119445WA0000001072
B1254243754189N00119402WA0000001059
B1254313754223N00119358WA0000001041
B1254383754262N00119320WA0000001027
B1254453754293N00119292WA0000001017
B1254523754319N00119260WA0000001011
B1254593754344N00119221WA0000001012
B1255063754333N00119192WA0000001021
B1255133754355N00119173WA0000001012
B1255203754358N00119225WA0000001016
B1255273754332N00119217WA0000001019
B1255343754319N00119192WA0000001022
B1255413754311N00119164WA0000001022
B1255483754331N00119133WA0000001012
B1255553754357N00119113WA0000001009
B1256023754385N00119079WA0000000997
B1256093754409N00119039WA0000000983
B1256163754438N00119001WA0000000966
B1256233754468N00118956WA0000000956
B1256303754496N00118916WA0000000947
B1256373754521N00118886WA0000000934
B1256443754545N00118854WA0000000911
B1256513754568N00118819WA0000000890
B1256583754578N00118772WA0000000891
B1257053754556N00118749WA0000000892
B1257123754547N00118717WA0000000885
B1257193754569N00118705WA0000000880
B1257263754563N00118748WA0000000876
B1257333754523N00118743WA0000000870
B1257403754511N00118705WA0000000862
B1257473754505N00118662WA0000000848
B1257543754502N00118618WA0000000828
B1258013754504N00118576WA0000000807
B1258083754496N00118537WA0000000788
B1258153754482N00118504WA0000000774
B1258223754465N00118473WA0000000756
B1258293754445N00118441WA0000000735
B1258363754426N00118402WA0000000721
B1258433754406N00118359WA0000000715
B1258503754390N00118326WA0000000719
B1258573754402N00118294WA0000000716
B1259043754407N00118336WA0000000720
B1259113754382N00118357WA0000000717
B1259183754356N00118342WA0000000719
B1259253754338N00118306WA0000000721
B1259323754313N00118283WA0000000723
B1259393754293N00118320WA0000000721
B1259463754323N00118328WA0000000722
B1259533754336N00118288WA0000000724
B1300003754329N00118252WA0000000724
B1300073754301N00118227WA0000000728
B1300143754277N00118253WA0000000733
B1300213754298N00118236WA0000000743
B1300283754286N00118199WA0000000747
B1300353754277N00118229WA0000000749
B1300423754284N00118260WA0000000754
B1300493754259N00118235WA0000000757
B1300563754285N00118224WA0000000757
B1301033754317N00118246WA0000000770
B1301103754313N00118283WA0000000774
B1301173754317N00118255WA0000000789
B1301243754351N00118266WA0000000798
B1301313754339N00118290WA0000000801
B1301383754328N00118253WA0000000809
B1301453754334N00118219WA0000000831
B1301523754361N00118216WA0000000853
B1301593754341N00118225WA0000000877
B1302063754362N00118210WA0000000893
B1302133754356N00118249WA0000000914
B1302203754351N00118229WA0000000927
B1302273754388N00118254WA0000000941
B1302343754367N00118280WA0000000944
B1302413754355N00118265WA0000000950
B1302483754366N00118236WA0000000957
B1302553754404N00118238WA0000000962
B1303023754400N00118283WA0000000963
B1303093754376N00118282WA0000000960
B1303163754362N00118246WA0000000970
B1303233754337N00118261WA0000000979
B1303303754349N00118244WA0000000986
B1303373754316N00118240WA0000001007
B1303443754325N00118211WA0000001026
B1303513754331N00118248WA0000001045
B1303583754316N00118219WA0000001064
B1304053754345N00118209WA0000001075
B1304123754326N00118234WA0000001096
B1304193754318N00118208WA0000001102
B1304263754346N00118227WA0000001119
B1304333754326N00118244WA0000001132
B1304403754333N00118207WA0000001138
B1304473754367N00118219WA0000001158
B1304543754360N00118251WA0000001158
B1305013754347N00118222WA0000001173
B1305083754379N00118193WA0000001182
B1305153754398N00118231WA0000001184
B1305223754369N00118237WA0000001192
B1305293754347N00118203WA0000001201
B1305363754357N00118161WA0000001210
B1305433754393N00118174WA0000001215
B1305503754374N00118195WA0000001223
B1305573754351N00118167WA0000001231
B1306043754331N00118134WA0000001233
B1306113754306N00118103WA0000001225
B1306183754279N00118068WA0000001209
B1306253754250N00118028WA0000001193
B1306323754222N00117990WA0000001179
B1306393754195N00117951WA0000001171
B1306463754169N00117918WA0000001165
B1306533754139N00117888WA0000001158
B1307003754104N00117859WA0000001153
B1307073754071N00117822WA0000001145
B1307143754039N00117788WA0000001141
B1307213754011N00117771WA0000001146
B1307283753994N00117813WA0000001149
B1307353754020N00117818WA0000001143
B1307423754009N00117777WA0000001142
B1307493753986N00117746WA0000001149
B1307563753984N00117704WA0000001145
B1308033753952N00117664WA0000001148
B1308103753912N00117641WA0000001155
B1308173753878N00117630WA0000001163
B1308243753879N00117660WA0000001161
B1308313753900N00117631WA0000001163
B1308383753879N00117591WA0000001171
B1308453753860N00117553WA0000001177
B1308523753838N00117515WA0000001180
B1308593753811N00117487WA0000001187
B1309063753786N00117460WA0000001193
B1309133753755N00117440WA0000001189
B1309203753717N00117417WA0000001180
B1309273753674N00117393WA0000001167
B1309343753634N00117383WA0000001159
B1309413753589N00117368WA0000001149
B1309483753546N00117354WA0000001138
B1309553753509N00117338WA0000001124
B1310023753501N00117290WA0000001121
B1310093753522N00117247WA0000001117
B1310163753548N00117220WA0000001114
B1310233753583N00117185WA0000001102
B1310303753618N00117148WA0000001088
B1310373753652N00117108WA0000001073
B1310443753692N00117075WA0000001066
B1310513753730N00117045WA0000001053
B1310583753762N00117003WA0000001041
B1311053753797N00116966WA0000001040
B1311123753828N00116936WA0000001027
B1311193753863N00116906WA0000001022
B1311263753898N00116875WA0000001018
B1311333753931N00116846WA0000001003
B1311403753970N00116815WA0000000985
B1311473754010N00116787WA0000000969
B1311543754047N00116754WA0000000948
B1312013754083N00116717WA0000000926
B1312083754102N00116687WA0000000906
B1312153754131N00116656WA0000000887
B1312223754164N00116632WA0000000873
B1312293754200N00116614WA0000000857
B1312363754237N00116597WA0000000843
B1312433754278N00116581WA0000000834
B1312503754318N00116566WA0000000832
B1312573754350N00116550WA0000000827
B1313043754381N00116527WA0000000823
B1313113754410N00116501WA0000000817
B1313183754445N00116468WA0000000808
B1313253754477N00116434WA0000000804
B1313323754508N00116396WA0000000797
B1313393754539N00116351WA0000000788
B1313463754567N00116308WA0000000782
B1313533754601N00116290WA0000000768
B1314003754626N00116324WA0000000749
B1314073754620N00116365WA0000000740
B1314143754604N00116401WA0000000727
B1314213754593N00116440WA0000000706
B1314283754598N00116489WA0000000689
B1314353754608N00116534WA0000000680
B1314423754618N00116580WA0000000662
B1314493754634N00116626WA0000000657
B1314563754646N00116677WA0000000651
B1315033754658N00116724WA0000000651
B1315103754686N00116766WA0000000655
B1315173754705N00116809WA0000000646
B1315243754723N00116858WA0000000636
B1315313754755N00116896WA0000000623
B1315383754787N00116936WA0000000611
B1315453754823N00116975WA0000000605
B1315523754847N00117023WA0000000596
B1315593754849N00117075WA0000000586
B1316063754844N00117127WA0000000582
B1316133754833N00117175WA0000000575
B1316203754830N00117226WA0000000569
B1316273754840N00117277WA0000000562
B1316343754835N00117333WA0000000557
B1316413754823N00117386WA0000000553
B1316483754806N00117438WA0000000554
B1316553754787N00117465WA0000000557
B1317023754804N00117448WA0000000561
B1317093754820N00117495WA0000000568
B1317163754802N00117489WA0000000570
B1317233754836N00117485WA0000000575
B1317303754840N00117533WA0000000579
B1317373754837N00117511WA0000000586
B1317443754872N00117507WA0000000585
B1317513754882N00117560WA0000000585
B1317583754859N00117562WA0000000588
B1318053754836N00117579WA0000000592
B1318123754818N00117569WA0000000601
B1318193754842N00117558WA0000000602
B1318263754837N00117603WA0000000616
B1318333754822N00117586WA0000000626
B1318403754807N00117568WA0000000644
B1318473754815N00117599WA0000000655
B1318543754833N00117568WA0000000673
B1319013754815N00117583WA0000000686
B1319083754850N00117594WA0000000698
B1319153754844N00117569WA0000000715
B1319223754843N00117599WA0000000731
B1319293754871N00117582WA0000000746
B1319363754851N00117565WA0000000765
B1319433754854N00117541WA0000000767
B1319503754876N00117576WA0000000782
B1319573754864N00117611WA0000000797
B1320043754878N00117642WA0000000802
B1320113754903N00117605WA0000000816
B1320183754875N00117583WA0000000821
B1320253754853N00117593WA0000000833
B1320323754840N00117624WA0000000838
B1320393754825N00117664WA0000000837
B1320463754837N00117702WA0000000838
B1320533754868N00117717WA0000000853
B1321003754861N00117743WA0000000874
B1321073754865N00117697WA0000000892
B1321143754893N00117718WA0000000913
B1321213754875N00117717WA0000000935
B1321283754899N00117679WA0000000953
B1321353754925N00117700WA0000000967
B1321423754940N00117729WA0000000984
B1321493754915N00117738WA0000001007
B1321563754925N00117701WA0000001027
B1322033754943N00117728WA0000001057
B1322103754932N00117751WA0000001069
B1322173754911N00117748WA0000001076
B1322243754902N00117714WA0000001093
B1322313754882N00117713WA0000001105
B1322383754882N00117759WA0000001113
B1322453754874N00117801WA0000001110
B1322523754844N00117827WA0000001108
B1322593754816N00117843WA0000001110
B1323063754794N00117863WA0000001106
B1323133754771N00117883WA0000001104
B1323203754745N00117904WA0000001101
B1323273754717N00117920WA0000001097
B1323343754690N00117934WA0000001092
B1323413754663N00117944WA0000001086
B1323483754640N00117948WA0000001088
B1323553754616N00117957WA0000001094
B1324023754588N00117969WA0000001091
B1324093754551N00117976WA0000001082
B1324163754509N00117974WA0000001071
B1324233754465N00117968WA0000001060
B1324303754419N00117961WA0000001043
B1324373754374N00117956WA0000001018
B1324443754335N00117951WA0000000994
B1324513754308N00117947WA0000000966
B1324583754271N00117946WA0000000952
B1325053754239N00117943WA0000000955
B1325123754207N00117949WA0000000941
B1325193754169N00117953WA0000000940
B1325263754135N00117956WA0000000936
B1325333754097N00117957WA0000000933
B1325403754058N00117954WA0000000932
B1325473754033N00117959WA0000000932
B1325543754000N00117957WA0000000928
B1326013753967N00117954WA0000000929
B1326083753928N00117951WA0000000931
B1326153753903N00117958WA0000000947
B1326223753878N00117962WA0000000962
B1326293753887N00117998WA0000000974
B1326363753897N00117964WA0000000986
B1326433753869N00117960WA0000000999
B1326503753836N00117962WA0000001002
B1326573753804N00117960WA0000001014
B1327043753776N00117961WA0000001026
B1327113753758N00117929WA0000001034
B1327183753785N00117924WA0000001043
B1327253753781N00117951WA0000001058
B1327323753762N00117924WA0000001073
B1327393753790N00117900WA0000001086
B1327463753796N00117930WA0000001104
B1327533753784N00117950WA0000001121
B1328003753756N00117955WA0000001121
B1328073753726N00117959WA0000001127
B1328143753699N00117976WA0000001132
B1328213753676N00117989WA0000001139
B1328283753647N00118002WA0000001140
B1328353753618N00118013WA0000001142
B1328423753585N00118023WA0000001149
B1328493753548N00118026WA0000001153
B1328563753513N00118035WA0000001166
B1329033753481N00118047WA0000001175
B1329103753452N00118068WA0000001188
B1329173753413N00118079WA0000001192
B1329243753376N00118083WA0000001205
B1329313753338N00118068WA0000001197
B1329383753295N00118069WA0000001177
B1329453753259N00118082WA0000001161
B1329523753225N00118106WA0000001157
B1329593753204N00118125WA0000001163
B1330063753184N00118143WA0000001156
B1330133753160N00118157WA0000001153
B1330203753135N00118173WA0000001142
B1330273753110N00118193WA0000001133
B1330343753083N00118208WA0000001122
B1330413753051N00118217WA0000001112
B1330483753019N00118228WA0000001104
B1330553752984N00118230WA0000001093
B1331023752944N00118226WA0000001083
B1331093752906N00118223WA0000001069
B1331163752871N00118227WA0000001057
B1331233752835N00118239WA0000001051
B1331303752800N00118254WA0000001046
B1331373752769N00118269WA0000001046
B1331443752734N00118279WA0000001043
B1331513752697N00118287WA0000001037
B1331583752659N00118299WA0000001036
B1332053752639N00118333WA0000001024
B1332123752646N00118388WA0000001012
B1332193752670N00118435WA0000001002
B1332263752699N00118478WA0000000997
B1332333752732N00118505WA0000001006
B1332403752732N00118533WA0000001018
B1332473752736N00118499WA0000001030
B1332543752765N00118511WA0000001044
B1333013752742N00118520WA0000001056
B1333083752753N00118485WA0000001068
B1333153752786N00118492WA0000001079
B1333223752819N00118501WA0000001092
B1333293752827N00118533WA0000001101
B1333363752802N00118507WA0000001114
B1333433752828N00118476WA0000001124
B1333503752860N00118489WA0000001130
B1333573752894N00118505WA0000001129
B1334043752930N00118519WA0000001125
B1334113752964N00118533WA0000001133
B1334183753005N00118527WA0000001143
B1334253753047N00118511WA0000001146
B1334323753078N00118522WA0000001151
B1334393753052N00118540WA0000001155
B1334463753025N00118504WA0000001156
B1334533753053N00118471WA0000001160
B1335003753084N00118483WA0000001158
B1335073753105N00118503WA0000001161
B1335143753129N00118524WA0000001159
B1335213753152N00118548WA0000001162
B1335283753173N00118570WA0000001155
B1335353753196N00118588WA0000001150
B1335423753220N00118602WA0000001141
B1335493753250N00118614WA0000001130
B1335563753282N00118627WA0000001117
B1336033753312N00118641WA0000001104
B1336103753344N00118652WA0000001086
B1336173753371N00118672WA0000001076
B1336243753401N00118679WA0000001061
B1336313753393N00118654WA0000001013
B1336383753401N00118637WA0000000988
B1336453753368N00118609WA0000000969
B1336523753338N00118561WA0000000948
B1336593753306N00118515WA0000000931
B1337063753277N00118465WA0000000914
B1337133753250N00118418WA0000000908
B1337203753223N00118382WA0000000897
B1337273753197N00118357WA0000000892
B1337343753181N00118341WA0000000879
B1337413753153N00118327WA0000000870
B1337483753124N00118322WA0000000845
B1337553753092N00118306WA0000000825
B1338023753059N00118295WA0000000818
B1338093753023N00118284WA0000000805
B1338163752992N00118276WA0000000801
B1338233752959N00118267WA0000000788
B1338303752923N00118260WA0000000774
B1338373752887N00118262WA0000000761
B1338443752851N00118256WA0000000744
B1338513752824N00118257WA0000000739
B1338583752841N00118254WA0000000680
B1339053752852N00118246WA0000000630
B1339123752864N00118272WA0000000623
B1339193752879N00118234WA0000000612
B1339263752856N00118223WA0000000605
B1339333752821N00118229WA0000000600
B1339403752788N00118227WA0000000593
B1339473752760N00118223WA0000000578
B1339543752731N00118219WA0000000565
B1340013752703N00118212WA0000000558
B1340083752674N00118203WA0000000550
B1340153752647N00118202WA0000000547
B1340223752670N00118196WA0000000506
B1340293752679N00118215WA0000000462
B1340363752695N00118228WA0000000448
B1340433752738N00118204WA0000000433
B1340503752740N00118177WA0000000422
B1340573752717N00118182WA0000000422
B1341043752708N00118218WA0000000413
B1341113752697N00118253WA0000000398
B1341183752687N00118286WA0000000380
B1341253752712N00118282WA0000000358
B1341323752702N00118301WA0000000342
B1341393752697N00118338WA0000000331
B1341463752688N00118350WA0000000314
B1341533752727N00118359WA0000000302
B1342003752727N00118338WA0000000284
B1342073752723N00118327WA0000000277
B1342143752714N00118325WA0000000267
B1342213752707N00118319WA0000000263
B1342283752701N00118313WA0000000252
B1342353752695N00118305WA0000000245
B1342423752687N00118302WA0000000237
B1342493752677N00118304WA0000000225
B1342563752672N00118301WA0000000213
B1343033752664N00118293WA0000000204
B1343103752655N00118281WA0000000202
B1343173752645N00118285WA0000000196
B1343243752635N00118278WA0000000186
B1343313752623N00118280WA0000000177
LXCG     VERSION:5.7
GAA23DE9540E12E34E497EB3A54A2854C3E90671593C2CF684AC4FF0952D2E0A91885C
G2F8EFF5602283A57C41174F6A9F82FC837A2CCE80955CB979A076BAFC09703E8D08
G7DE0F0663E68AF65995817D97644F7EB08FB0C5BC05A7659AD571330551E4B5D8F6
GDC7F21A5A54161E58B816679B603B30252E4A764C536163ECE03E9DFBE280